sensor_id;sensor_type;location;lat;lon;timestamp;pressure;altitude;pressure_sealevel;temperature;humidity
9750;BME280;4914;43.218;27.908;2022-11-20T00:01:20;100464.84;;;18.15;100.00
9750;BME280;4914;43.218;27.908;2022-11-20T00:03:48;100451.41;;;18.15;100.00
9750;BME280;4914;43.218;27.908;2022-11-20T00:06:18;100467.38;;;18.09;100.00
9750;BME280;4914;43.218;27.908;2022-11-20T00:08:45;100457.28;;;18.27;100.00
9750;BME280;4914;43.218;27.908;2022-11-20T00:11:14;100462.00;;;18.17;100.00
9750;BME280;4914;43.218;27.908;2022-11-20T00:13:41;100456.09;;;18.13;100.00
9750;BME280;4914;43.218;27.908;2022-11-20T00:16:10;100445.72;;;17.94;100.00
9750;BME280;4914;43.218;27.908;2022-11-20T00:18:37;100444.56;;;17.89;100.00
9750;BME280;4914;43.218;27.908;2022-11-20T00:21:06;100456.13;;;18.05;100.00
9750;BME280;4914;43.218;27.908;2022-11-20T00:23:35;100448.22;;;18.12;100.00
9750;BME280;4914;43.218;27.908;2022-11-20T00:26:02;100439.34;;;18.11;100.00
9750;BME280;4914;43.218;27.908;2022-11-20T00:28:30;100451.25;;;18.01;100.00
9750;BME280;4914;43.218;27.908;2022-11-20T00:31:01;100445.09;;;17.84;100.00
9750;BME280;4914;43.218;27.908;2022-11-20T00:33:28;100446.25;;;17.73;100.00
9750;BME280;4914;43.218;27.908;2022-11-20T00:35:59;100445.44;;;17.65;100.00
9750;BME280;4914;43.218;27.908;2022-11-20T00:38:27;100449.06;;;17.48;100.00
9750;BME280;4914;43.218;27.908;2022-11-20T00:40:56;100441.50;;;17.35;100.00
9750;BME280;4914;43.218;27.908;2022-11-20T00:43:24;100444.00;;;17.28;100.00
9750;BME280;4914;43.218;27.908;2022-11-20T00:45:51;100456.59;;;17.28;100.00
9750;BME280;4914;43.218;27.908;2022-11-20T00:48:22;100458.75;;;17.16;100.00
9750;BME280;4914;43.218;27.908;2022-11-20T00:50:49;100450.38;;;17.19;100.00
9750;BME280;4914;43.218;27.908;2022-11-20T00:53:15;100459.59;;;17.17;100.00
9750;BME280;4914;43.218;27.908;2022-11-20T00:55:42;100451.06;;;17.29;100.00
9750;BME280;4914;43.218;27.908;2022-11-20T00:58:10;100447.88;;;17.34;100.00
9750;BME280;4914;43.218;27.908;2022-11-20T01:00:37;100453.78;;;17.54;100.00
9750;BME280;4914;43.218;27.908;2022-11-20T01:03:04;100458.66;;;17.66;100.00
9750;BME280;4914;43.218;27.908;2022-11-20T01:05:34;100448.06;;;17.89;100.00
9750;BME280;4914;43.218;27.908;2022-11-20T01:08:01;100457.16;;;17.88;100.00
9750;BME280;4914;43.218;27.908;2022-11-20T01:10:27;100448.06;;;18.05;100.00
9750;BME280;4914;43.218;27.908;2022-11-20T01:12:55;100442.63;;;18.29;100.00
9750;BME280;4914;43.218;27.908;2022-11-20T01:15:37;100455.22;;;18.45;100.00
9750;BME280;4914;43.218;27.908;2022-11-20T01:18:04;100449.13;;;18.51;100.00
9750;BME280;4914;43.218;27.908;2022-11-20T01:20:34;100452.16;;;18.56;100.00
9750;BME280;4914;43.218;27.908;2022-11-20T01:23:01;100449.91;;;18.76;100.00
9750;BME280;4914;43.218;27.908;2022-11-20T01:25:28;100443.50;;;18.77;100.00
9750;BME280;4914;43.218;27.908;2022-11-20T01:27:55;100448.66;;;18.87;100.00
9750;BME280;4914;43.218;27.908;2022-11-20T01:30:22;100444.09;;;18.95;100.00
9750;BME280;4914;43.218;27.908;2022-11-20T01:32:50;100439.75;;;18.94;100.00
9750;BME280;4914;43.218;27.908;2022-11-20T01:35:17;100451.06;;;18.82;100.00
9750;BME280;4914;43.218;27.908;2022-11-20T01:37:44;100444.38;;;19.00;100.00
9750;BME280;4914;43.218;27.908;2022-11-20T01:40:11;100438.00;;;19.01;100.00
9750;BME280;4914;43.218;27.908;2022-11-20T01:42:38;100444.75;;;18.97;100.00
9750;BME280;4914;43.218;27.908;2022-11-20T01:45:56;100428.25;;;19.00;100.00
9750;BME280;4914;43.218;27.908;2022-11-20T01:48:29;100431.63;;;19.02;100.00
9750;BME280;4914;43.218;27.908;2022-11-20T01:50:58;100427.94;;;18.95;100.00
9750;BME280;4914;43.218;27.908;2022-11-20T01:53:29;100424.28;;;18.88;100.00
9750;BME280;4914;43.218;27.908;2022-11-20T01:56:00;100441.91;;;18.99;100.00
9750;BME280;4914;43.218;27.908;2022-11-20T01:58:31;100424.78;;;19.14;100.00
9750;BME280;4914;43.218;27.908;2022-11-20T02:00:59;100425.00;;;19.13;100.00
9750;BME280;4914;43.218;27.908;2022-11-20T02:03:27;100429.22;;;19.07;100.00
9750;BME280;4914;43.218;27.908;2022-11-20T02:05:59;100428.75;;;19.27;100.00
9750;BME280;4914;43.218;27.908;2022-11-20T02:08:30;100423.00;;;19.30;100.00
9750;BME280;4914;43.218;27.908;2022-11-20T02:10:57;100430.53;;;19.34;100.00
9750;BME280;4914;43.218;27.908;2022-11-20T02:13:24;100422.56;;;19.49;100.00
9750;BME280;4914;43.218;27.908;2022-11-20T02:16:10;100416.53;;;19.47;100.00
9750;BME280;4914;43.218;27.908;2022-11-20T02:18:40;100420.00;;;19.55;100.00
9750;BME280;4914;43.218;27.908;2022-11-20T02:21:17;100418.16;;;19.56;100.00
9750;BME280;4914;43.218;27.908;2022-11-20T02:24:09;100412.56;;;19.57;100.00
9750;BME280;4914;43.218;27.908;2022-11-20T02:26:43;100422.16;;;19.60;100.00
9750;BME280;4914;43.218;27.908;2022-11-20T02:29:11;100411.50;;;19.44;100.00
9750;BME280;4914;43.218;27.908;2022-11-20T02:31:40;100423.97;;;19.37;100.00
9750;BME280;4914;43.218;27.908;2022-11-20T02:34:08;100418.94;;;19.34;100.00
9750;BME280;4914;43.218;27.908;2022-11-20T02:36:36;100424.09;;;19.21;100.00
9750;BME280;4914;43.218;27.908;2022-11-20T02:39:05;100420.47;;;19.05;100.00
9750;BME280;4914;43.218;27.908;2022-11-20T02:41:35;100411.63;;;18.97;100.00
9750;BME280;4914;43.218;27.908;2022-11-20T02:44:03;100416.16;;;18.96;100.00
9750;BME280;4914;43.218;27.908;2022-11-20T02:46:30;100413.38;;;19.12;100.00
9750;BME280;4914;43.218;27.908;2022-11-20T02:48:58;100403.84;;;19.02;100.00
9750;BME280;4914;43.218;27.908;2022-11-20T02:51:25;100398.09;;;19.05;100.00
9750;BME280;4914;43.218;27.908;2022-11-20T02:53:51;100392.91;;;19.03;100.00
9750;BME280;4914;43.218;27.908;2022-11-20T02:56:18;100385.00;;;19.25;100.00
9750;BME280;4914;43.218;27.908;2022-11-20T02:58:47;100395.91;;;19.31;100.00
9750;BME280;4914;43.218;27.908;2022-11-20T03:01:14;100404.25;;;19.44;100.00
9750;BME280;4914;43.218;27.908;2022-11-20T03:03:41;100410.94;;;19.48;100.00
9750;BME280;4914;43.218;27.908;2022-11-20T03:06:08;100412.25;;;19.52;100.00
9750;BME280;4914;43.218;27.908;2022-11-20T03:08:34;100410.78;;;19.50;100.00
9750;BME280;4914;43.218;27.908;2022-11-20T03:11:03;100407.78;;;19.45;100.00
9750;BME280;4914;43.218;27.908;2022-11-20T03:13:31;100412.47;;;19.43;100.00
9750;BME280;4914;43.218;27.908;2022-11-20T03:16:05;100399.22;;;19.41;100.00
9750;BME280;4914;43.218;27.908;2022-11-20T03:18:32;100395.00;;;19.39;100.00
9750;BME280;4914;43.218;27.908;2022-11-20T03:20:59;100391.16;;;19.33;100.00
9750;BME280;4914;43.218;27.908;2022-11-20T03:23:25;100395.38;;;19.36;100.00
9750;BME280;4914;43.218;27.908;2022-11-20T03:25:52;100395.00;;;19.39;100.00
9750;BME280;4914;43.218;27.908;2022-11-20T03:28:19;100382.22;;;19.41;100.00
9750;BME280;4914;43.218;27.908;2022-11-20T03:30:46;100380.69;;;19.38;100.00
9750;BME280;4914;43.218;27.908;2022-11-20T03:33:14;100382.56;;;19.38;100.00
9750;BME280;4914;43.218;27.908;2022-11-20T03:35:41;100375.50;;;19.37;100.00
9750;BME280;4914;43.218;27.908;2022-11-20T03:38:08;100376.16;;;19.39;100.00
9750;BME280;4914;43.218;27.908;2022-11-20T03:40:35;100375.31;;;19.38;100.00
9750;BME280;4914;43.218;27.908;2022-11-20T03:43:02;100384.53;;;19.21;100.00
9750;BME280;4914;43.218;27.908;2022-11-20T03:45:28;100377.31;;;19.22;100.00
9750;BME280;4914;43.218;27.908;2022-11-20T03:47:55;100386.69;;;19.26;100.00
9750;BME280;4914;43.218;27.908;2022-11-20T03:50:23;100386.41;;;19.21;100.00
9750;BME280;4914;43.218;27.908;2022-11-20T03:52:50;100373.00;;;19.12;100.00
9750;BME280;4914;43.218;27.908;2022-11-20T03:55:17;100372.25;;;19.18;100.00
9750;BME280;4914;43.218;27.908;2022-11-20T03:57:44;100373.69;;;19.29;100.00
9750;BME280;4914;43.218;27.908;2022-11-20T04:00:12;100375.09;;;19.25;100.00
9750;BME280;4914;43.218;27.908;2022-11-20T04:02:39;100372.75;;;19.22;100.00
9750;BME280;4914;43.218;27.908;2022-11-20T04:05:06;100371.94;;;19.22;100.00
9750;BME280;4914;43.218;27.908;2022-11-20T04:07:35;100362.16;;;19.21;100.00
9750;BME280;4914;43.218;27.908;2022-11-20T04:10:03;100361.78;;;19.24;100.00
9750;BME280;4914;43.218;27.908;2022-11-20T04:12:32;100356.38;;;19.32;100.00
9750;BME280;4914;43.218;27.908;2022-11-20T04:14:58;100364.44;;;19.32;100.00
9750;BME280;4914;43.218;27.908;2022-11-20T04:17:25;100361.75;;;19.32;100.00
9750;BME280;4914;43.218;27.908;2022-11-20T04:19:52;100355.53;;;19.31;100.00
9750;BME280;4914;43.218;27.908;2022-11-20T04:22:19;100358.06;;;19.33;100.00
9750;BME280;4914;43.218;27.908;2022-11-20T04:24:47;100354.69;;;19.31;100.00
9750;BME280;4914;43.218;27.908;2022-11-20T04:27:14;100349.84;;;19.26;100.00
9750;BME280;4914;43.218;27.908;2022-11-20T04:29:41;100345.00;;;19.22;100.00
9750;BME280;4914;43.218;27.908;2022-11-20T04:32:08;100354.09;;;19.21;100.00
9750;BME280;4914;43.218;27.908;2022-11-20T04:34:34;100356.13;;;19.18;100.00
9750;BME280;4914;43.218;27.908;2022-11-20T04:37:01;100354.56;;;19.24;100.00
9750;BME280;4914;43.218;27.908;2022-11-20T04:39:28;100350.38;;;19.22;100.00
9750;BME280;4914;43.218;27.908;2022-11-20T04:41:56;100350.72;;;19.18;100.00
9750;BME280;4914;43.218;27.908;2022-11-20T04:44:37;100346.00;;;19.21;100.00
9750;BME280;4914;43.218;27.908;2022-11-20T04:47:04;100339.97;;;19.18;100.00
9750;BME280;4914;43.218;27.908;2022-11-20T04:49:31;100345.63;;;19.24;100.00
9750;BME280;4914;43.218;27.908;2022-11-20T04:51:58;100344.63;;;19.25;100.00
9750;BME280;4914;43.218;27.908;2022-11-20T04:54:24;100339.91;;;19.27;100.00
9750;BME280;4914;43.218;27.908;2022-11-20T04:56:51;100349.66;;;19.28;100.00
9750;BME280;4914;43.218;27.908;2022-11-20T04:59:19;100363.13;;;19.28;100.00
9750;BME280;4914;43.218;27.908;2022-11-20T05:01:46;100355.88;;;19.28;100.00
9750;BME280;4914;43.218;27.908;2022-11-20T05:04:13;100368.44;;;19.36;100.00
9750;BME280;4914;43.218;27.908;2022-11-20T05:06:40;100360.75;;;19.33;100.00
9750;BME280;4914;43.218;27.908;2022-11-20T05:09:07;100347.44;;;19.31;100.00
9750;BME280;4914;43.218;27.908;2022-11-20T05:11:33;100345.84;;;19.22;100.00
9750;BME280;4914;43.218;27.908;2022-11-20T05:14:00;100335.91;;;19.23;100.00
9750;BME280;4914;43.218;27.908;2022-11-20T05:16:28;100334.94;;;19.15;100.00
9750;BME280;4914;43.218;27.908;2022-11-20T05:18:55;100340.81;;;19.19;100.00
9750;BME280;4914;43.218;27.908;2022-11-20T05:21:22;100342.84;;;19.17;100.00
9750;BME280;4914;43.218;27.908;2022-11-20T05:23:49;100342.31;;;19.22;100.00
9750;BME280;4914;43.218;27.908;2022-11-20T05:26:18;100357.25;;;19.24;100.00
9750;BME280;4914;43.218;27.908;2022-11-20T05:28:46;100355.06;;;19.28;100.00
9750;BME280;4914;43.218;27.908;2022-11-20T05:31:15;100352.53;;;19.26;100.00
9750;BME280;4914;43.218;27.908;2022-11-20T05:33:44;100357.22;;;19.32;100.00
9750;BME280;4914;43.218;27.908;2022-11-20T05:36:12;100357.69;;;19.36;100.00
9750;BME280;4914;43.218;27.908;2022-11-20T05:38:40;100358.97;;;19.40;100.00
9750;BME280;4914;43.218;27.908;2022-11-20T05:41:08;100369.72;;;19.48;100.00
9750;BME280;4914;43.218;27.908;2022-11-20T05:43:37;100371.56;;;19.47;100.00
9750;BME280;4914;43.218;27.908;2022-11-20T05:46:05;100379.47;;;19.49;100.00
9750;BME280;4914;43.218;27.908;2022-11-20T05:48:33;100387.38;;;19.50;100.00
9750;BME280;4914;43.218;27.908;2022-11-20T05:51:04;100387.84;;;19.54;100.00
9750;BME280;4914;43.218;27.908;2022-11-20T05:53:31;100386.16;;;19.53;100.00
9750;BME280;4914;43.218;27.908;2022-11-20T05:55:59;100392.38;;;19.53;100.00
9750;BME280;4914;43.218;27.908;2022-11-20T05:58:26;100385.31;;;19.52;100.00
9750;BME280;4914;43.218;27.908;2022-11-20T06:00:53;100378.75;;;19.55;100.00
9750;BME280;4914;43.218;27.908;2022-11-20T06:03:20;100374.00;;;19.57;100.00
9750;BME280;4914;43.218;27.908;2022-11-20T06:05:47;100385.06;;;19.62;100.00
9750;BME280;4914;43.218;27.908;2022-11-20T06:08:16;100375.63;;;19.66;100.00
9750;BME280;4914;43.218;27.908;2022-11-20T06:10:42;100387.03;;;19.68;100.00
9750;BME280;4914;43.218;27.908;2022-11-20T06:13:09;100385.19;;;19.69;100.00
9750;BME280;4914;43.218;27.908;2022-11-20T06:15:36;100382.88;;;19.66;100.00
9750;BME280;4914;43.218;27.908;2022-11-20T06:18:03;100371.88;;;19.67;100.00
9750;BME280;4914;43.218;27.908;2022-11-20T06:20:30;100386.19;;;19.68;100.00
9750;BME280;4914;43.218;27.908;2022-11-20T06:22:56;100392.25;;;19.70;100.00
9750;BME280;4914;43.218;27.908;2022-11-20T06:25:25;100386.03;;;19.69;100.00
9750;BME280;4914;43.218;27.908;2022-11-20T06:27:51;100382.59;;;19.75;100.00
9750;BME280;4914;43.218;27.908;2022-11-20T06:30:18;100393.69;;;19.80;100.00
9750;BME280;4914;43.218;27.908;2022-11-20T06:32:45;100389.75;;;19.83;100.00
9750;BME280;4914;43.218;27.908;2022-11-20T06:35:12;100392.28;;;19.84;100.00
9750;BME280;4914;43.218;27.908;2022-11-20T06:37:39;100388.59;;;19.85;100.00
9750;BME280;4914;43.218;27.908;2022-11-20T06:40:07;100386.06;;;19.98;100.00
9750;BME280;4914;43.218;27.908;2022-11-20T06:42:35;100391.94;;;20.17;100.00
9750;BME280;4914;43.218;27.908;2022-11-20T06:45:02;100395.66;;;20.16;100.00
9750;BME280;4914;43.218;27.908;2022-11-20T06:47:29;100395.09;;;20.20;100.00
9750;BME280;4914;43.218;27.908;2022-11-20T06:49:56;100391.84;;;20.25;100.00
9750;BME280;4914;43.218;27.908;2022-11-20T06:52:23;100385.75;;;20.31;100.00
9750;BME280;4914;43.218;27.908;2022-11-20T06:54:49;100386.84;;;20.36;100.00
9750;BME280;4914;43.218;27.908;2022-11-20T06:57:16;100388.59;;;20.44;100.00
9750;BME280;4914;43.218;27.908;2022-11-20T06:59:45;100394.09;;;20.51;100.00
9750;BME280;4914;43.218;27.908;2022-11-20T07:02:11;100388.22;;;20.62;100.00
9750;BME280;4914;43.218;27.908;2022-11-20T07:04:39;100392.28;;;20.72;100.00
9750;BME280;4914;43.218;27.908;2022-11-20T07:07:06;100398.59;;;20.79;100.00
9750;BME280;4914;43.218;27.908;2022-11-20T07:09:33;100404.19;;;20.78;100.00
9750;BME280;4914;43.218;27.908;2022-11-20T07:11:59;100394.72;;;20.67;100.00
9750;BME280;4914;43.218;27.908;2022-11-20T07:14:26;100395.19;;;20.71;100.00
9750;BME280;4914;43.218;27.908;2022-11-20T07:16:55;100392.75;;;20.76;100.00
9750;BME280;4914;43.218;27.908;2022-11-20T07:19:22;100393.78;;;20.75;100.00
9750;BME280;4914;43.218;27.908;2022-11-20T07:21:49;100389.97;;;20.69;100.00
9750;BME280;4914;43.218;27.908;2022-11-20T07:24:15;100383.16;;;20.73;100.00
9750;BME280;4914;43.218;27.908;2022-11-20T07:26:42;100389.50;;;20.80;100.00
9750;BME280;4914;43.218;27.908;2022-11-20T07:29:12;100397.06;;;20.70;100.00
9750;BME280;4914;43.218;27.908;2022-11-20T07:31:39;100394.41;;;20.77;100.00
9750;BME280;4914;43.218;27.908;2022-11-20T07:34:07;100389.75;;;20.85;100.00
9750;BME280;4914;43.218;27.908;2022-11-20T07:36:34;100390.97;;;20.83;100.00
9750;BME280;4914;43.218;27.908;2022-11-20T07:39:00;100397.66;;;20.87;100.00
9750;BME280;4914;43.218;27.908;2022-11-20T07:41:27;100392.47;;;20.85;100.00
9750;BME280;4914;43.218;27.908;2022-11-20T07:43:54;100386.53;;;20.97;100.00
9750;BME280;4914;43.218;27.908;2022-11-20T07:46:21;100382.44;;;21.01;100.00
9750;BME280;4914;43.218;27.908;2022-11-20T07:48:48;100377.69;;;21.03;100.00
9750;BME280;4914;43.218;27.908;2022-11-20T07:51:16;100383.09;;;21.03;100.00
9750;BME280;4914;43.218;27.908;2022-11-20T07:53:43;100389.50;;;21.02;100.00
9750;BME280;4914;43.218;27.908;2022-11-20T07:56:10;100383.72;;;21.19;100.00
9750;BME280;4914;43.218;27.908;2022-11-20T07:58:36;100388.97;;;21.49;100.00
9750;BME280;4914;43.218;27.908;2022-11-20T08:01:04;100370.63;;;21.65;100.00
9750;BME280;4914;43.218;27.908;2022-11-20T08:03:30;100394.44;;;21.83;100.00
9750;BME280;4914;43.218;27.908;2022-11-20T08:05:58;100389.50;;;21.87;100.00
9750;BME280;4914;43.218;27.908;2022-11-20T08:08:27;100393.84;;;22.09;100.00
9750;BME280;4914;43.218;27.908;2022-11-20T08:10:56;100390.41;;;22.28;100.00
9750;BME280;4914;43.218;27.908;2022-11-20T08:13:43;100388.03;;;22.12;100.00
9750;BME280;4914;43.218;27.908;2022-11-20T08:16:27;100390.13;;;22.10;100.00
9750;BME280;4914;43.218;27.908;2022-11-20T08:18:54;100388.06;;;22.18;100.00
9750;BME280;4914;43.218;27.908;2022-11-20T08:21:21;100396.38;;;22.17;100.00
9750;BME280;4914;43.218;27.908;2022-11-20T08:23:50;100387.59;;;22.08;100.00
9750;BME280;4914;43.218;27.908;2022-11-20T08:26:17;100394.94;;;22.21;100.00
9750;BME280;4914;43.218;27.908;2022-11-20T08:28:44;100386.84;;;22.21;100.00
9750;BME280;4914;43.218;27.908;2022-11-20T08:31:12;100385.72;;;22.09;100.00
9750;BME280;4914;43.218;27.908;2022-11-20T08:33:39;100403.75;;;22.02;100.00
9750;BME280;4914;43.218;27.908;2022-11-20T08:36:06;100393.84;;;21.60;100.00
9750;BME280;4914;43.218;27.908;2022-11-20T08:38:33;100386.91;;;21.51;100.00
9750;BME280;4914;43.218;27.908;2022-11-20T08:41:03;100391.63;;;21.42;100.00
9750;BME280;4914;43.218;27.908;2022-11-20T08:43:48;100377.19;;;21.35;100.00
9750;BME280;4914;43.218;27.908;2022-11-20T08:46:16;100377.75;;;21.24;100.00
9750;BME280;4914;43.218;27.908;2022-11-20T08:48:43;100366.53;;;21.27;100.00
9750;BME280;4914;43.218;27.908;2022-11-20T08:51:11;100371.94;;;21.27;100.00
9750;BME280;4914;43.218;27.908;2022-11-20T08:53:38;100370.22;;;21.19;100.00
9750;BME280;4914;43.218;27.908;2022-11-20T08:56:07;100375.81;;;21.18;100.00
9750;BME280;4914;43.218;27.908;2022-11-20T08:58:35;100374.53;;;21.14;100.00
9750;BME280;4914;43.218;27.908;2022-11-20T09:01:02;100376.38;;;21.13;100.00
9750;BME280;4914;43.218;27.908;2022-11-20T09:03:29;100367.16;;;21.08;100.00
9750;BME280;4914;43.218;27.908;2022-11-20T09:05:59;100371.09;;;21.05;100.00
9750;BME280;4914;43.218;27.908;2022-11-20T09:08:27;100372.53;;;21.08;100.00
9750;BME280;4914;43.218;27.908;2022-11-20T09:10:55;100371.81;;;21.14;100.00
9750;BME280;4914;43.218;27.908;2022-11-20T09:13:25;100358.47;;;21.12;100.00
9750;BME280;4914;43.218;27.908;2022-11-20T09:15:55;100365.41;;;21.15;100.00
9750;BME280;4914;43.218;27.908;2022-11-20T09:18:23;100356.50;;;21.21;100.00
9750;BME280;4914;43.218;27.908;2022-11-20T09:20:50;100367.56;;;21.26;100.00
9750;BME280;4914;43.218;27.908;2022-11-20T09:23:17;100361.13;;;21.27;100.00
9750;BME280;4914;43.218;27.908;2022-11-20T09:25:44;100357.28;;;21.36;100.00
9750;BME280;4914;43.218;27.908;2022-11-20T09:28:11;100354.81;;;21.41;100.00
9750;BME280;4914;43.218;27.908;2022-11-20T09:30:40;100356.94;;;21.46;100.00
9750;BME280;4914;43.218;27.908;2022-11-20T09:33:06;100359.06;;;21.50;100.00
9750;BME280;4914;43.218;27.908;2022-11-20T09:35:33;100352.06;;;21.35;100.00
9750;BME280;4914;43.218;27.908;2022-11-20T09:38:04;100352.88;;;21.35;100.00
9750;BME280;4914;43.218;27.908;2022-11-20T09:40:34;100349.81;;;21.38;100.00
9750;BME280;4914;43.218;27.908;2022-11-20T09:43:07;100350.19;;;21.35;100.00
9750;BME280;4914;43.218;27.908;2022-11-20T09:45:53;100339.53;;;21.27;100.00
9750;BME280;4914;43.218;27.908;2022-11-20T09:48:53;100340.19;;;21.29;100.00
9750;BME280;4914;43.218;27.908;2022-11-20T09:51:35;100337.91;;;21.33;100.00
9750;BME280;4914;43.218;27.908;2022-11-20T09:54:15;100334.69;;;21.44;100.00
9750;BME280;4914;43.218;27.908;2022-11-20T09:56:45;100324.69;;;21.44;100.00
9750;BME280;4914;43.218;27.908;2022-11-20T09:59:27;100322.41;;;21.41;100.00
9750;BME280;4914;43.218;27.908;2022-11-20T10:01:59;100313.91;;;21.44;100.00
9750;BME280;4914;43.218;27.908;2022-11-20T10:04:29;100326.00;;;21.48;100.00
9750;BME280;4914;43.218;27.908;2022-11-20T10:07:03;100313.53;;;21.47;100.00
9750;BME280;4914;43.218;27.908;2022-11-20T10:09:33;100316.47;;;21.52;100.00
9750;BME280;4914;43.218;27.908;2022-11-20T10:12:12;100318.25;;;21.66;100.00
9750;BME280;4914;43.218;27.908;2022-11-20T10:14:52;100305.09;;;21.63;100.00
9750;BME280;4914;43.218;27.908;2022-11-20T10:17:31;100299.34;;;21.45;100.00
9750;BME280;4914;43.218;27.908;2022-11-20T10:20:16;100296.66;;;21.45;100.00
9750;BME280;4914;43.218;27.908;2022-11-20T10:22:58;100288.97;;;21.42;100.00
9750;BME280;4914;43.218;27.908;2022-11-20T10:25:36;100289.28;;;21.33;100.00
9750;BME280;4914;43.218;27.908;2022-11-20T10:28:15;100279.38;;;21.40;100.00
9750;BME280;4914;43.218;27.908;2022-11-20T10:30:56;100288.78;;;21.44;100.00
9750;BME280;4914;43.218;27.908;2022-11-20T10:33:26;100285.94;;;21.30;100.00
9750;BME280;4914;43.218;27.908;2022-11-20T10:36:04;100278.31;;;21.34;100.00
9750;BME280;4914;43.218;27.908;2022-11-20T10:38:37;100276.88;;;21.38;100.00
9750;BME280;4914;43.218;27.908;2022-11-20T10:41:07;100271.72;;;21.43;100.00
9750;BME280;4914;43.218;27.908;2022-11-20T10:44:00;100274.44;;;21.50;100.00
9750;BME280;4914;43.218;27.908;2022-11-20T10:46:34;100284.47;;;21.56;100.00
9750;BME280;4914;43.218;27.908;2022-11-20T10:49:11;100271.16;;;21.54;100.00
9750;BME280;4914;43.218;27.908;2022-11-20T10:51:47;100277.03;;;21.58;100.00
9750;BME280;4914;43.218;27.908;2022-11-20T10:54:22;100278.47;;;21.60;100.00
9750;BME280;4914;43.218;27.908;2022-11-20T10:56:56;100265.38;;;21.57;100.00
9750;BME280;4914;43.218;27.908;2022-11-20T10:59:47;100266.16;;;21.51;100.00
9750;BME280;4914;43.218;27.908;2022-11-20T11:02:20;100278.66;;;21.52;100.00
9750;BME280;4914;43.218;27.908;2022-11-20T11:04:49;100275.34;;;21.57;100.00
9750;BME280;4914;43.218;27.908;2022-11-20T11:07:20;100273.03;;;21.54;100.00
9750;BME280;4914;43.218;27.908;2022-11-20T11:09:49;100280.75;;;21.57;100.00
9750;BME280;4914;43.218;27.908;2022-11-20T11:12:17;100270.97;;;21.56;100.00
9750;BME280;4914;43.218;27.908;2022-11-20T11:14:46;100255.44;;;21.64;100.00
9750;BME280;4914;43.218;27.908;2022-11-20T11:17:24;100268.09;;;21.64;100.00
9750;BME280;4914;43.218;27.908;2022-11-20T11:20:15;100272.44;;;21.58;100.00
9750;BME280;4914;43.218;27.908;2022-11-20T11:22:45;100278.47;;;21.60;100.00
9750;BME280;4914;43.218;27.908;2022-11-20T11:25:24;100276.63;;;21.61;100.00
9750;BME280;4914;43.218;27.908;2022-11-20T11:27:52;100279.03;;;21.49;100.00
9750;BME280;4914;43.218;27.908;2022-11-20T11:30:21;100275.94;;;21.52;100.00
9750;BME280;4914;43.218;27.908;2022-11-20T11:32:48;100284.81;;;21.46;100.00
9750;BME280;4914;43.218;27.908;2022-11-20T11:35:22;100280.09;;;21.55;100.00
9750;BME280;4914;43.218;27.908;2022-11-20T11:37:50;100276.56;;;21.54;100.00
9750;BME280;4914;43.218;27.908;2022-11-20T11:40:21;100286.25;;;21.42;100.00
9750;BME280;4914;43.218;27.908;2022-11-20T11:42:54;100292.28;;;21.44;100.00
9750;BME280;4914;43.218;27.908;2022-11-20T11:45:22;100293.63;;;21.27;100.00
9750;BME280;4914;43.218;27.908;2022-11-20T11:47:48;100292.09;;;21.46;100.00
9750;BME280;4914;43.218;27.908;2022-11-20T11:50:18;100296.75;;;21.58;100.00
9750;BME280;4914;43.218;27.908;2022-11-20T11:52:51;100301.97;;;21.60;100.00
9750;BME280;4914;43.218;27.908;2022-11-20T11:55:29;100301.94;;;21.53;100.00
9750;BME280;4914;43.218;27.908;2022-11-20T11:58:11;100294.94;;;21.38;100.00
9750;BME280;4914;43.218;27.908;2022-11-20T12:00:41;100308.97;;;21.48;100.00
9750;BME280;4914;43.218;27.908;2022-11-20T12:03:16;100311.06;;;21.52;100.00
9750;BME280;4914;43.218;27.908;2022-11-20T12:05:48;100314.38;;;21.48;100.00
9750;BME280;4914;43.218;27.908;2022-11-20T12:08:21;100314.38;;;21.48;100.00
9750;BME280;4914;43.218;27.908;2022-11-20T12:10:53;100296.63;;;21.39;100.00
9750;BME280;4914;43.218;27.908;2022-11-20T12:13:34;100307.63;;;21.37;100.00
9750;BME280;4914;43.218;27.908;2022-11-20T12:16:03;100301.19;;;21.38;100.00
9750;BME280;4914;43.218;27.908;2022-11-20T12:18:31;100304.34;;;21.42;100.00
9750;BME280;4914;43.218;27.908;2022-11-20T12:21:09;100290.13;;;21.33;100.00
9750;BME280;4914;43.218;27.908;2022-11-20T12:23:45;100296.72;;;21.24;100.00
9750;BME280;4914;43.218;27.908;2022-11-20T12:26:22;100295.66;;;21.25;100.00
9750;BME280;4914;43.218;27.908;2022-11-20T12:29:04;100288.34;;;21.19;100.00
9750;BME280;4914;43.218;27.908;2022-11-20T12:31:49;100293.22;;;21.09;100.00
9750;BME280;4914;43.218;27.908;2022-11-20T12:34:29;100273.75;;;21.13;100.00
9750;BME280;4914;43.218;27.908;2022-11-20T12:37:06;100278.16;;;21.14;100.00
9750;BME280;4914;43.218;27.908;2022-11-20T12:39:47;100278.69;;;21.10;100.00
9750;BME280;4914;43.218;27.908;2022-11-20T12:42:40;100272.00;;;21.06;100.00
9750;BME280;4914;43.218;27.908;2022-11-20T12:45:46;100278.41;;;21.19;100.00
9750;BME280;4914;43.218;27.908;2022-11-20T12:48:39;100276.72;;;21.18;100.00
9750;BME280;4914;43.218;27.908;2022-11-20T12:51:24;100284.47;;;21.07;100.00
9750;BME280;4914;43.218;27.908;2022-11-20T12:56:33;100292.19;;;21.10;100.00
9750;BME280;4914;43.218;27.908;2022-11-20T12:59:23;100297.97;;;21.07;100.00
9750;BME280;4914;43.218;27.908;2022-11-20T13:01:55;100293.81;;;21.04;100.00
9750;BME280;4914;43.218;27.908;2022-11-20T13:04:39;100297.09;;;21.00;100.00
9750;BME280;4914;43.218;27.908;2022-11-20T13:07:13;100300.63;;;21.00;100.00
9750;BME280;4914;43.218;27.908;2022-11-20T13:09:43;100292.72;;;20.99;100.00